createdAt,value
2022-08-16T00:03:24.363Z,6.60
2022-08-16T00:06:28.801Z,7.10
2022-08-16T00:09:29.869Z,6.80
2022-08-16T00:12:32.406Z,6.30
2022-08-16T00:15:50.896Z,6.70
2022-08-16T00:18:57.428Z,6.40
2022-08-16T00:22:12.686Z,6.10
2022-08-16T00:25:19.713Z,6.50
2022-08-16T00:28:39.261Z,6.40
2022-08-16T00:31:59.064Z,7.20
2022-08-16T00:35:00.435Z,7.00
2022-08-16T00:37:59.530Z,6.70
2022-08-16T00:40:59.241Z,6.60
2022-08-16T00:43:57.488Z,6.70
2022-08-16T00:47:06.026Z,6.70
2022-08-16T00:50:04.295Z,6.50
2022-08-16T00:53:09.441Z,6.40
2022-08-16T00:56:56.980Z,7.00
2022-08-16T00:59:33.007Z,6.20
2022-08-16T01:02:33.379Z,7.10
2022-08-16T01:05:52.661Z,7.00
2022-08-16T01:09:10.398Z,6.90
2022-08-16T01:12:26.174Z,7.40
2022-08-16T01:15:27.495Z,6.80
2022-08-16T01:18:40.352Z,7.20
2022-08-16T01:21:44.713Z,7.00
2022-08-16T01:24:53.887Z,6.70
2022-08-16T01:27:57.784Z,7.40
2022-08-16T01:30:59.627Z,7.20
2022-08-16T01:33:58.973Z,7.40
2022-08-16T01:37:09.093Z,6.90
2022-08-16T01:40:10.448Z,7.50
2022-08-16T01:43:10.410Z,6.70
2022-08-16T01:46:38.019Z,6.80
2022-08-16T01:49:45.414Z,6.90
2022-08-16T01:52:53.702Z,7.10
2022-08-16T01:56:23.495Z,7.00
2022-08-16T01:59:23.920Z,7.30
2022-08-16T02:02:27.373Z,7.50
2022-08-16T02:05:30.764Z,7.20
2022-08-16T02:08:32.728Z,7.10
2022-08-16T02:11:47.622Z,6.90
2022-08-16T02:14:47.742Z,7.00
2022-08-16T02:17:47.297Z,7.30
2022-08-16T02:20:56.432Z,7.00
2022-08-16T02:23:56.648Z,6.90
2022-08-16T02:26:54.317Z,7.40
2022-08-16T02:30:04.997Z,7.10
2022-08-16T02:33:04.458Z,7.50
2022-08-16T02:36:04.693Z,7.20
2022-08-16T02:39:11.124Z,7.60
2022-08-16T02:42:11.323Z,7.70
2022-08-16T02:45:11.663Z,7.60
2022-08-16T02:48:28.445Z,7.30
2022-08-16T02:51:32.381Z,7.20
2022-08-16T02:54:34.732Z,7.40
2022-08-16T02:57:34.476Z,7.40
2022-08-16T03:00:34.872Z,7.80
2022-08-16T03:04:39.998Z,7.60
2022-08-16T03:06:57.984Z,7.80
2022-08-16T03:10:20.542Z,7.70
2022-08-16T03:13:31.803Z,7.70
2022-08-16T03:16:42.297Z,8.00
2022-08-16T03:20:02.752Z,7.60
2022-08-16T03:23:05.460Z,7.60
2022-08-16T03:26:01.919Z,7.90
2022-08-16T03:28:59.450Z,7.90
2022-08-16T03:31:57.543Z,7.70
2022-08-16T03:34:55.583Z,8.30
2022-08-16T03:38:02.739Z,7.90
2022-08-16T03:41:24.299Z,8.30
2022-08-16T03:44:44.096Z,8.50
2022-08-16T03:50:38.223Z,8.30
2022-08-16T03:53:37.778Z,8.80
2022-08-16T03:56:36.787Z,9.00
2022-08-16T03:59:36.729Z,9.00
2022-08-16T04:02:40.526Z,9.10
2022-08-16T04:05:47.890Z,8.80
2022-08-16T04:08:55.113Z,9.70
2022-08-16T04:11:54.432Z,9.00
2022-08-16T04:14:53.755Z,9.10
2022-08-16T04:17:53.158Z,9.40
2022-08-16T04:20:54.980Z,9.00
2022-08-16T04:23:59.044Z,8.90
2022-08-16T04:27:02.972Z,9.50
2022-08-16T04:30:13.193Z,9.20
2022-08-16T04:33:34.829Z,9.00
2022-08-16T04:36:32.774Z,8.60
2022-08-16T04:39:44.888Z,8.70
2022-08-16T04:42:48.316Z,8.60
2022-08-16T04:46:00.816Z,10.00
2022-08-16T04:49:08.428Z,9.00
2022-08-16T04:52:06.398Z,8.70
2022-08-16T04:55:31.818Z,9.20
2022-08-16T04:58:46.929Z,8.90
2022-08-16T05:01:58.643Z,8.60
2022-08-16T05:05:00.548Z,8.60
2022-08-16T05:08:29.368Z,8.80
2022-08-16T05:11:59.583Z,8.60
2022-08-16T05:15:01.956Z,9.80
2022-08-16T05:18:08.971Z,10.00
2022-08-16T05:21:27.031Z,10.40
2022-08-16T05:24:27.519Z,10.90
2022-08-16T05:27:28.647Z,11.60
2022-08-16T05:30:35.089Z,12.00
2022-08-16T05:33:44.669Z,12.00
2022-08-16T05:36:53.812Z,12.00
2022-08-16T05:40:06.278Z,11.30
2022-08-16T05:43:22.429Z,11.60
2022-08-16T05:46:30.994Z,11.60
2022-08-16T05:49:45.865Z,12.80
2022-08-16T05:52:50.336Z,15.50
2022-08-16T05:55:58.879Z,15.90
2022-08-16T05:58:57.819Z,13.70
2022-08-16T06:02:08.737Z,13.10
2022-08-16T06:05:15.836Z,13.20
2022-08-16T06:08:31.708Z,12.40
2022-08-16T06:11:43.841Z,13.00
2022-08-16T06:15:07.571Z,11.80
2022-08-16T06:18:11.847Z,11.70
2022-08-16T06:21:11.843Z,12.60
2022-08-16T06:27:57.162Z,11.70
2022-08-16T06:31:03.193Z,11.70
2022-08-16T06:34:55.555Z,11.60
2022-08-16T06:37:37.377Z,11.10
2022-08-16T06:40:49.173Z,11.90
2022-08-16T06:43:54.897Z,11.50
2022-08-16T06:46:58.901Z,11.60
2022-08-16T06:50:22.075Z,11.60
2022-08-16T06:53:35.749Z,11.30
2022-08-16T06:56:39.644Z,11.90
2022-08-16T06:59:58.485Z,10.70
2022-08-16T07:03:26.959Z,10.40
2022-08-16T07:06:29.769Z,10.50
2022-08-16T07:09:42.866Z,10.80
2022-08-16T07:12:47.382Z,10.70
2022-08-16T07:15:53.487Z,11.10
2022-08-16T07:19:01.880Z,10.90
2022-08-16T07:22:52.934Z,10.70
2022-08-16T07:25:58.878Z,10.60
2022-08-16T07:29:03.876Z,10.60
2022-08-16T07:32:06.837Z,10.10
2022-08-16T07:35:19.774Z,10.40
2022-08-16T07:38:31.800Z,9.80
2022-08-16T07:41:45.643Z,10.60
2022-08-16T07:44:51.876Z,10.00
2022-08-16T07:47:57.798Z,10.20
2022-08-16T07:51:09.913Z,10.80
2022-08-16T07:54:32.080Z,10.20
2022-08-16T07:57:55.799Z,9.50
2022-08-16T08:01:17.003Z,9.70
2022-08-16T08:04:38.988Z,9.80
2022-08-16T08:07:47.160Z,9.90
2022-08-16T08:11:09.321Z,9.60
2022-08-16T08:14:29.989Z,10.40
2022-08-16T08:17:42.745Z,9.50
2022-08-16T08:20:59.474Z,9.90
2022-08-16T08:24:15.181Z,9.60
2022-08-16T08:27:27.939Z,9.30
2022-08-16T08:30:51.571Z,9.60
2022-08-16T08:34:18.835Z,9.60
2022-08-16T08:37:51.189Z,9.70
2022-08-16T08:41:09.962Z,9.80
2022-08-16T08:44:28.815Z,9.80
2022-08-16T08:47:54.257Z,10.60
2022-08-16T08:51:10.301Z,11.60
2022-08-16T08:54:31.845Z,11.90
2022-08-16T08:57:44.968Z,12.70
2022-08-16T09:01:36.887Z,12.30
2022-08-16T09:04:51.248Z,12.10
2022-08-16T09:08:05.734Z,12.50
2022-08-16T09:11:40.675Z,12.40
2022-08-16T09:14:51.183Z,12.20
2022-08-16T09:18:26.173Z,13.10
2022-08-16T09:21:44.960Z,11.60
2022-08-16T09:25:14.767Z,13.20
2022-08-16T09:29:06.743Z,12.40
2022-08-16T09:32:00.794Z,12.30
2022-08-16T09:35:12.992Z,12.10
2022-08-16T09:38:31.372Z,12.90
2022-08-16T09:41:38.055Z,12.50
2022-08-16T09:45:10.798Z,12.80
2022-08-16T09:48:44.409Z,12.90
2022-08-16T09:51:55.479Z,12.10
2022-08-16T09:54:59.405Z,12.50
2022-08-16T09:58:40.673Z,12.20
2022-08-16T10:01:52.998Z,12.10
2022-08-16T10:05:10.149Z,11.10
2022-08-16T10:08:26.876Z,11.00
2022-08-16T10:12:11.662Z,10.70
2022-08-16T10:15:21.829Z,10.70
2022-08-16T10:18:56.598Z,11.70
2022-08-16T10:22:14.678Z,11.00
2022-08-16T10:27:18.287Z,10.90
2022-08-16T10:28:59.112Z,11.00
2022-08-16T10:32:08.785Z,11.10
2022-08-16T10:35:16.310Z,10.80
2022-08-16T10:38:36.734Z,10.90
2022-08-16T10:41:43.123Z,10.80
2022-08-16T10:45:10.065Z,10.50
2022-08-16T10:48:27.504Z,10.80
2022-08-16T10:52:01.070Z,11.20
2022-08-16T10:58:34.008Z,10.80
2022-08-16T11:02:21.782Z,11.30
2022-08-16T11:05:21.203Z,11.40
2022-08-16T11:08:35.619Z,11.00
2022-08-16T11:15:19.210Z,11.80
2022-08-16T11:18:48.743Z,11.10
2022-08-16T11:32:31.519Z,11.10
2022-08-16T11:39:29.561Z,10.90
2022-08-16T11:42:37.047Z,10.50
2022-08-16T11:45:53.818Z,11.00
2022-08-16T11:49:02.957Z,11.20
2022-08-16T11:52:17.467Z,10.80
2022-08-16T11:55:21.213Z,10.80
2022-08-16T11:58:35.905Z,10.20
2022-08-16T12:01:59.266Z,11.10
2022-08-16T12:05:06.869Z,10.90
2022-08-16T12:08:07.861Z,10.80
2022-08-16T12:11:18.980Z,10.80
2022-08-16T12:14:37.621Z,9.50
2022-08-16T12:17:46.786Z,10.10
2022-08-16T12:21:05.451Z,10.60
2022-08-16T12:24:31.292Z,10.10
2022-08-16T12:27:42.344Z,9.80
2022-08-16T12:30:54.106Z,9.50
2022-08-16T12:34:12.304Z,9.30
2022-08-16T12:37:28.792Z,9.10
2022-08-16T12:40:41.961Z,9.80
2022-08-16T12:44:01.334Z,9.10
2022-08-16T12:47:19.470Z,9.00
2022-08-16T12:50:33.391Z,9.10
2022-08-16T12:53:51.366Z,9.30
2022-08-16T12:57:07.129Z,9.60
2022-08-16T13:00:26.766Z,8.70
2022-08-16T13:03:48.138Z,8.50
2022-08-16T13:07:09.115Z,9.10
2022-08-16T13:10:38.016Z,8.60
2022-08-16T13:13:54.984Z,8.30
2022-08-16T13:17:01.340Z,8.40
2022-08-16T13:20:26.164Z,8.20
2022-08-16T13:23:43.580Z,8.90
2022-08-16T13:27:00.149Z,9.00
2022-08-16T13:30:21.916Z,8.60
2022-08-16T13:33:45.375Z,9.20
2022-08-16T13:36:53.100Z,8.40
2022-08-16T13:40:05.253Z,8.80
2022-08-16T13:43:16.057Z,8.80
2022-08-16T13:46:28.348Z,9.20
2022-08-16T13:49:38.137Z,8.90
2022-08-16T13:52:52.519Z,8.70
2022-08-16T13:56:00.793Z,8.80
2022-08-16T13:59:02.234Z,8.50
2022-08-16T14:02:06.946Z,8.10
2022-08-16T14:05:22.003Z,8.50
2022-08-16T14:08:28.601Z,7.60
2022-08-16T14:11:29.163Z,8.00
2022-08-16T14:14:47.370Z,7.80
2022-08-16T14:18:15.827Z,7.20
2022-08-16T14:21:21.873Z,7.60
2022-08-16T14:24:30.664Z,7.80
2022-08-16T14:27:42.200Z,8.00
2022-08-16T14:30:51.438Z,7.30
2022-08-16T14:34:01.185Z,7.20
2022-08-16T14:37:15.180Z,8.00
2022-08-16T14:40:20.135Z,7.90
2022-08-16T14:43:29.723Z,8.30
2022-08-16T14:46:33.096Z,8.10
2022-08-16T14:49:44.245Z,7.60
2022-08-16T14:53:05.264Z,7.30
2022-08-16T14:56:38.887Z,7.20
2022-08-16T14:59:56.214Z,7.20
2022-08-16T15:02:59.935Z,7.20
2022-08-16T15:06:06.385Z,7.20
2022-08-16T15:09:09.288Z,7.40
2022-08-16T15:12:27.018Z,7.70
2022-08-16T15:15:51.300Z,7.00
2022-08-16T15:19:06.185Z,7.30
2022-08-16T15:22:21.038Z,7.10
2022-08-16T15:25:35.417Z,7.90
2022-08-16T15:28:42.109Z,7.90
2022-08-16T15:31:45.065Z,7.60
2022-08-16T15:35:04.418Z,7.30
2022-08-16T15:38:10.242Z,7.20
2022-08-16T15:42:05.903Z,7.40
2022-08-16T15:45:15.895Z,8.30
2022-08-16T15:48:17.293Z,10.30
2022-08-16T15:51:17.872Z,11.70
2022-08-16T15:54:30.990Z,19.30
2022-08-16T15:57:41.652Z,19.50
2022-08-16T16:00:50.135Z,15.90
2022-08-16T16:03:53.151Z,15.40
2022-08-16T16:07:05.238Z,11.20
2022-08-16T16:10:28.397Z,10.00
2022-08-16T16:13:34.730Z,8.90
2022-08-16T16:16:45.954Z,8.30
2022-08-16T16:19:57.599Z,7.80
2022-08-16T16:23:17.295Z,7.70
2022-08-16T16:26:23.250Z,7.50
2022-08-16T16:29:37.274Z,6.90
2022-08-16T16:32:51.004Z,7.50
2022-08-16T16:35:56.847Z,7.70
2022-08-16T16:38:57.339Z,7.40
2022-08-16T16:42:00.409Z,7.80
2022-08-16T16:45:05.959Z,7.90
2022-08-16T16:48:22.385Z,7.10
2022-08-16T16:51:50.079Z,7.20
2022-08-16T16:54:57.413Z,7.10
2022-08-16T16:58:35.095Z,7.30
2022-08-16T17:01:59.958Z,7.10
2022-08-16T17:05:22.248Z,7.00
2022-08-16T17:08:40.924Z,7.00
2022-08-16T17:11:55.396Z,7.20
2022-08-16T17:15:03.198Z,7.20
2022-08-16T17:19:15.024Z,6.60
2022-08-16T17:21:47.411Z,6.60
2022-08-16T17:25:03.166Z,7.10
2022-08-16T17:28:57.812Z,7.00
2022-08-16T17:31:50.217Z,6.80
2022-08-16T17:35:10.772Z,6.70
2022-08-16T17:38:14.772Z,6.60
2022-08-16T17:41:41.275Z,6.30
2022-08-16T17:44:54.827Z,6.50
2022-08-16T17:48:04.871Z,6.50
2022-08-16T17:51:29.306Z,6.30
2022-08-16T17:54:30.588Z,6.50
2022-08-16T17:57:33.207Z,5.80
2022-08-16T18:00:47.539Z,6.40
2022-08-16T18:04:06.961Z,6.20
2022-08-16T18:07:16.200Z,6.00
2022-08-16T18:13:45.344Z,6.70
2022-08-16T18:16:56.675Z,6.90
2022-08-16T18:20:34.666Z,7.20
2022-08-16T18:23:46.443Z,6.60
2022-08-16T18:26:54.792Z,6.80
2022-08-16T18:30:14.328Z,7.00
2022-08-16T18:33:33.380Z,6.60
2022-08-16T18:36:51.297Z,6.80
2022-08-16T18:40:06.520Z,7.30
2022-08-16T18:44:23.867Z,7.70
2022-08-16T18:46:56.013Z,7.90
2022-08-16T18:50:11.885Z,7.80
2022-08-16T18:53:27.889Z,7.80
2022-08-16T18:56:55.797Z,8.20
2022-08-16T19:00:26.378Z,8.40
2022-08-16T19:03:43.280Z,8.10
2022-08-16T19:06:53.590Z,8.40
2022-08-16T19:09:53.654Z,8.50
2022-08-16T19:13:07.771Z,9.40
2022-08-16T19:16:21.850Z,9.30
2022-08-16T19:19:28.154Z,8.70
2022-08-16T19:23:01.460Z,8.70
2022-08-16T19:26:24.958Z,8.60
2022-08-16T19:29:33.335Z,8.50
2022-08-16T19:32:42.371Z,8.50
2022-08-16T19:35:44.527Z,8.80
2022-08-16T19:39:05.011Z,9.70
2022-08-16T19:42:22.313Z,9.40
2022-08-16T19:45:46.556Z,9.30
2022-08-16T19:49:06.650Z,9.00
2022-08-16T19:52:30.192Z,8.80
2022-08-16T19:55:40.421Z,9.90
2022-08-16T19:59:02.013Z,9.40
2022-08-16T20:02:36.030Z,9.70
2022-08-16T20:05:44.319Z,8.80
2022-08-16T20:08:49.201Z,9.70
2022-08-16T20:15:05.366Z,9.70
2022-08-16T20:18:25.236Z,10.60
2022-08-16T20:21:27.130Z,10.10
2022-08-16T20:24:36.365Z,9.90
2022-08-16T20:27:39.125Z,9.20
2022-08-16T20:30:46.640Z,10.00
2022-08-16T20:33:57.941Z,10.00
2022-08-16T20:37:19.981Z,10.40
2022-08-16T20:40:35.678Z,10.40
2022-08-16T20:43:47.443Z,10.40
2022-08-16T20:46:54.194Z,10.70
2022-08-16T20:50:00.405Z,10.90
2022-08-16T20:53:07.659Z,11.40
2022-08-16T20:56:26.089Z,11.30
2022-08-16T20:59:25.991Z,11.70
2022-08-16T21:02:32.637Z,11.30
2022-08-16T21:05:39.533Z,11.70
2022-08-16T21:08:54.058Z,11.30
2022-08-16T21:12:07.422Z,10.70
2022-08-16T21:15:18.993Z,11.20
2022-08-16T21:18:21.352Z,10.60
2022-08-16T21:21:22.775Z,10.80
2022-08-16T21:24:36.976Z,9.70
2022-08-16T21:28:38.819Z,9.50
2022-08-16T21:31:11.341Z,9.50
2022-08-16T21:34:17.616Z,10.40
2022-08-16T21:37:33.471Z,10.30
2022-08-16T21:40:35.478Z,9.70
2022-08-16T21:43:47.315Z,10.60
2022-08-16T21:46:49.235Z,9.80
2022-08-16T21:49:47.728Z,10.30
2022-08-16T21:52:55.424Z,9.20
2022-08-16T21:56:02.345Z,10.20
2022-08-16T21:59:21.457Z,9.70
2022-08-16T22:02:24.165Z,9.20
2022-08-16T22:05:28.623Z,9.90
2022-08-16T22:08:33.502Z,9.90
2022-08-16T22:11:34.236Z,9.60
2022-08-16T22:14:33.141Z,9.90
2022-08-16T22:17:40.226Z,10.00
2022-08-16T22:20:43.728Z,10.20
2022-08-16T22:23:57.921Z,10.30
2022-08-16T22:27:02.201Z,9.70
2022-08-16T22:30:06.114Z,10.10
2022-08-16T22:33:15.361Z,10.00
2022-08-16T22:36:21.485Z,9.60
2022-08-16T22:39:20.318Z,9.70
2022-08-16T22:42:18.983Z,9.50
2022-08-16T22:45:20.038Z,9.70
2022-08-16T22:48:23.471Z,9.40
2022-08-16T22:51:32.322Z,9.40
2022-08-16T22:54:47.842Z,9.00
2022-08-16T22:57:49.384Z,9.50
2022-08-16T23:00:55.502Z,9.10
2022-08-16T23:04:00.530Z,9.30
2022-08-16T23:07:03.141Z,9.50
2022-08-16T23:10:12.839Z,9.20
2022-08-16T23:13:12.627Z,9.40
2022-08-16T23:16:17.406Z,8.90
2022-08-16T23:19:25.194Z,10.00
2022-08-16T23:22:24.912Z,8.90
2022-08-16T23:25:33.501Z,9.70
2022-08-16T23:28:40.499Z,9.70
2022-08-16T23:31:41.630Z,9.60
2022-08-16T23:34:45.172Z,9.90
2022-08-16T23:37:43.627Z,10.10
2022-08-16T23:40:44.565Z,10.20
2022-08-16T23:43:44.102Z,9.90
2022-08-16T23:46:44.593Z,9.80
2022-08-16T23:49:58.303Z,10.30
2022-08-16T23:53:09.538Z,10.30
2022-08-16T23:56:10.609Z,9.90
2022-08-16T23:59:10.931Z,10.00
